PWSweather.com
Personal Weather Stations
Station Observations
WODONGA
Wodonga, WodongaAU 3690

WodongaWodongaAU 3690

Lat: -36.121, Lon: 146.87

Elevation: 541

Station Type: Weather Station

http://www.wodongaweather.net

Latest ConditionsUpdated 7:45:00 PM GMT+10:10 Friday, Aug 1, 2014
Currently Today's Max Today's Min Today's Average
Temperature 39.7°F4.3°C 46.4°F8.0°C 39.7°F4.3°C 42.3°F5.7°C
Dew Point 35.6°F2.0°C 42.7°F5.9°C 35.6°F2.0°C 38.7°F3.7°C
Winds 2.8 mph W4.5 kmh W 14.2 mph WNW22.9 kmh WNW - 7.5 mph 12.1 kmh
Wind Gusts 3.8 mph6.1 kmh 25.1 mph40.4 kmh - -
Humidity 85% 92% 83% 87%
Pressure 30.02 in1016.6 mb 30.02 in1016.6 mb 29.79 in1008.8 mb -
Precipitation - 0.17 in4.3 mm - -
Hour Temp Dew Point Humidity Winds Wind Gusts Pressure Precip Precip Rate Daily Precip Total
07:45 PM 39.7°F4.3°C 35.6°F2.0°C 85% 2.8 mph W4.5 kmh W 3.8 mph6.1 kmh 30.02 in1016.6 mb 0.00 in0.0 mm 0.00 in/hr0.0 mm/hr 0.17 in4.3 mm
07:40 PM 39.9°F4.4°C 35.8°F2.1°C 85% 3.2 mph W5.1 kmh W 6.0 mph9.7 kmh 30.01 in1016.3 mb 0.00 in0.0 mm 0.00 in/hr0.0 mm/hr 0.17 in4.3 mm
07:35 PM 39.9°F4.4°C 35.8°F2.1°C 85% 2.8 mph W4.5 kmh W 6.0 mph9.7 kmh 30.01 in1016.3 mb 0.00 in0.0 mm 0.00 in/hr0.0 mm/hr 0.17 in4.3 mm
07:30 PM 39.9°F4.4°C 35.8°F2.1°C 85% 3.1 mph W5.0 kmh W 7.6 mph12.2 kmh 30.01 in1016.3 mb 0.00 in0.0 mm 0.00 in/hr0.0 mm/hr 0.17 in4.3 mm
07:25 PM 39.9°F4.4°C 35.8°F2.1°C 85% 3.3 mph W5.3 kmh W 7.6 mph12.2 kmh 30.01 in1016.3 mb 0.00 in0.0 mm 0.00 in/hr0.0 mm/hr 0.17 in4.3 mm
07:20 PM 39.9°F4.4°C 35.8°F2.1°C 85% 2.7 mph W4.3 kmh W 3.8 mph6.1 kmh 30.00 in1015.9 mb 0.00 in0.0 mm 0.00 in/hr0.0 mm/hr 0.17 in4.3 mm
07:15 PM 40.1°F4.5°C 36.0°F2.2°C 85% 3.2 mph W5.1 kmh W 5.4 mph8.7 kmh 30.00 in1015.9 mb 0.00 in0.0 mm 0.00 in/hr0.0 mm/hr 0.17 in4.3 mm
07:10 PM 39.9°F4.4°C 35.8°F2.1°C 85% 4.6 mph W7.4 kmh W 6.0 mph9.7 kmh 29.99 in1015.6 mb 0.00 in0.0 mm 0.00 in/hr0.0 mm/hr 0.17 in4.3 mm
07:05 PM 40.1°F4.5°C 36.0°F2.2°C 85% 5.7 mph W9.2 kmh W 8.3 mph13.4 kmh 29.98 in1015.2 mb 0.00 in0.0 mm 0.00 in/hr0.0 mm/hr 0.17 in4.3 mm
07:00 PM 40.3°F4.6°C 36.1°F2.3°C 85% 5.0 mph W8.0 kmh W 8.3 mph13.4 kmh 29.98 in1015.2 mb 0.00 in0.0 mm 0.00 in/hr0.0 mm/hr 0.17 in4.3 mm
06:55 PM 40.3°F4.6°C 36.1°F2.3°C 85% 4.0 mph W6.4 kmh W 5.4 mph8.7 kmh 29.98 in1015.2 mb 0.00 in0.0 mm 0.00 in/hr0.0 mm/hr 0.17 in4.3 mm
06:50 PM 40.5°F4.7°C 36.3°F2.4°C 85% 3.9 mph W6.3 kmh W 6.0 mph9.7 kmh 29.97 in1014.9 mb 0.00 in0.0 mm 0.00 in/hr0.0 mm/hr 0.17 in4.3 mm
06:45 PM 40.6°F4.8°C 36.8°F2.7°C 86% 3.8 mph W6.1 kmh W 6.9 mph11.1 kmh 29.97 in1014.9 mb 0.00 in0.0 mm 0.00 in/hr0.0 mm/hr 0.17 in4.3 mm
06:40 PM 40.8°F4.9°C 36.7°F2.6°C 85% 4.2 mph W6.8 kmh W 6.9 mph11.1 kmh 29.96 in1014.6 mb 0.00 in0.0 mm 0.00 in/hr0.0 mm/hr 0.17 in4.3 mm
06:35 PM 41.2°F5.1°C 37.0°F2.8°C 85% 6.4 mph W10.3 kmh W 13.0 mph20.9 kmh 29.96 in1014.6 mb 0.00 in0.0 mm 0.00 in/hr0.0 mm/hr 0.17 in4.3 mm
06:30 PM 41.5°F5.3°C 37.4°F3.0°C 85% 9.9 mph W15.9 kmh W 16.8 mph27.0 kmh 29.96 in1014.6 mb 0.00 in0.0 mm 0.00 in/hr0.0 mm/hr 0.17 in4.3 mm
06:25 PM 42.1°F5.6°C 37.9°F3.3°C 85% 9.2 mph WNW14.8 kmh WNW 16.8 mph27.0 kmh 29.95 in1014.2 mb 0.00 in0.0 mm 0.00 in/hr0.0 mm/hr 0.17 in4.3 mm
06:20 PM 42.3°F5.7°C 38.4°F3.6°C 86% 5.4 mph W8.7 kmh W 9.2 mph14.8 kmh 29.95 in1014.2 mb 0.00 in0.0 mm 0.00 in/hr0.0 mm/hr 0.17 in4.3 mm
06:15 PM 42.3°F5.7°C 38.4°F3.6°C 86% 3.6 mph W5.8 kmh W 7.6 mph12.2 kmh 29.95 in1014.2 mb 0.00 in0.0 mm 0.00 in/hr0.0 mm/hr 0.17 in4.3 mm
06:10 PM 42.3°F5.7°C 38.1°F3.4°C 85% 4.2 mph W6.8 kmh W 7.6 mph12.2 kmh 29.95 in1014.2 mb 0.00 in0.0 mm 0.00 in/hr0.0 mm/hr 0.17 in4.3 mm
06:05 PM 42.3°F5.7°C 38.1°F3.4°C 85% 4.0 mph WNW6.4 kmh WNW 7.6 mph12.2 kmh 29.94 in1013.9 mb 0.00 in0.0 mm 0.00 in/hr0.0 mm/hr 0.17 in4.3 mm
06:00 PM 42.3°F5.7°C 38.1°F3.4°C 85% 3.8 mph NW6.1 kmh NW 6.0 mph9.7 kmh 29.94 in1013.9 mb 0.00 in0.0 mm 0.00 in/hr0.0 mm/hr 0.17 in4.3 mm
05:55 PM 42.3°F5.7°C 38.1°F3.4°C 85% 4.0 mph W6.4 kmh W 6.0 mph9.7 kmh 29.93 in1013.5 mb 0.00 in0.0 mm 0.00 in/hr0.0 mm/hr 0.17 in4.3 mm
05:50 PM 42.4°F5.8°C 38.3°F3.5°C 85% 3.0 mph WSW4.8 kmh WSW 6.0 mph9.7 kmh 29.93 in1013.5 mb 0.00 in0.0 mm 0.00 in/hr0.0 mm/hr 0.17 in4.3 mm
05:45 PM 42.6°F5.9°C 38.4°F3.6°C 85% 4.5 mph W7.2 kmh W 9.8 mph15.8 kmh 29.92 in1013.2 mb 0.00 in0.0 mm 0.00 in/hr0.0 mm/hr 0.17 in4.3 mm
05:40 PM 42.8°F6.0°C 38.6°F3.7°C 85% 7.1 mph W11.4 kmh W 10.7 mph17.2 kmh 29.92 in1013.2 mb 0.00 in0.0 mm 0.00 in/hr0.0 mm/hr 0.17 in4.3 mm
05:35 PM 43.0°F6.1°C 38.8°F3.8°C 85% 7.2 mph W11.6 kmh W 10.7 mph17.2 kmh 29.92 in1013.2 mb 0.00 in0.0 mm 0.00 in/hr0.0 mm/hr 0.17 in4.3 mm
05:30 PM 43.0°F6.1°C 38.8°F3.8°C 85% 5.7 mph W9.2 kmh W 10.7 mph17.2 kmh 29.91 in1012.9 mb 0.00 in0.0 mm 0.00 in/hr0.0 mm/hr 0.17 in4.3 mm
05:25 PM 43.0°F6.1°C 39.1°F3.9°C 86% 4.8 mph W7.7 kmh W 9.8 mph15.8 kmh 29.91 in1012.9 mb 0.00 in0.0 mm 0.00 in/hr0.0 mm/hr 0.17 in4.3 mm
05:20 PM 43.0°F6.1°C 39.1°F3.9°C 86% 4.8 mph W7.7 kmh W 9.8 mph15.8 kmh 29.90 in1012.5 mb 0.00 in0.0 mm 0.00 in/hr0.0 mm/hr 0.17 in4.3 mm
05:15 PM 43.0°F6.1°C 39.1°F3.9°C 86% 5.4 mph W8.7 kmh W 11.4 mph18.3 kmh 29.90 in1012.5 mb 0.00 in0.0 mm 0.00 in/hr0.0 mm/hr 0.17 in4.3 mm
05:10 PM 43.0°F6.1°C 39.1°F3.9°C 86% 6.7 mph W10.8 kmh W 11.4 mph18.3 kmh 29.90 in1012.5 mb 0.00 in0.0 mm 0.00 in/hr0.0 mm/hr 0.17 in4.3 mm
05:05 PM 43.0°F6.1°C 39.1°F3.9°C 86% 7.1 mph W11.4 kmh W 11.4 mph18.3 kmh 29.89 in1012.2 mb 0.00 in0.0 mm 0.00 in/hr0.0 mm/hr 0.17 in4.3 mm
05:00 PM 43.2°F6.2°C 39.3°F4.1°C 86% 5.8 mph WNW9.3 kmh WNW 8.3 mph13.4 kmh 29.89 in1012.2 mb 0.00 in0.0 mm 0.00 in/hr0.0 mm/hr 0.17 in4.3 mm
04:55 PM 43.2°F6.2°C 39.3°F4.1°C 86% 4.0 mph WNW6.4 kmh WNW 6.0 mph9.7 kmh 29.88 in1011.9 mb 0.00 in0.0 mm 0.00 in/hr0.0 mm/hr 0.17 in4.3 mm
04:50 PM 43.2°F6.2°C 39.3°F4.1°C 86% 3.8 mph WNW6.1 kmh WNW 6.9 mph11.1 kmh 29.88 in1011.9 mb 0.00 in0.0 mm 0.00 in/hr0.0 mm/hr 0.17 in4.3 mm
04:45 PM 43.2°F6.2°C 39.3°F4.1°C 86% 3.3 mph W5.3 kmh W 6.9 mph11.1 kmh 29.88 in1011.9 mb 0.01 in0.3 mm 0.00 in/hr0.0 mm/hr 0.17 in4.3 mm
04:40 PM 43.2°F6.2°C 39.3°F4.1°C 86% 2.6 mph WSW4.2 kmh WSW 7.6 mph12.2 kmh 29.88 in1011.9 mb 0.01 in0.3 mm 0.00 in/hr0.0 mm/hr 0.17 in4.3 mm
04:35 PM 43.2°F6.2°C 39.6°F4.2°C 87% 5.0 mph WSW8.0 kmh WSW 9.2 mph14.8 kmh 29.88 in1011.9 mb 0.01 in0.3 mm 0.00 in/hr0.0 mm/hr 0.17 in4.3 mm
04:30 PM 43.0°F6.1°C 39.4°F4.1°C 87% 5.2 mph WSW8.4 kmh WSW 9.2 mph14.8 kmh 29.86 in1011.2 mb 0.01 in0.3 mm 0.00 in/hr0.0 mm/hr 0.17 in4.3 mm
04:25 PM 42.3°F5.7°C 38.7°F3.7°C 87% 5.8 mph WSW9.3 kmh WSW 11.4 mph18.3 kmh 29.86 in1011.2 mb 0.01 in0.3 mm 0.00 in/hr0.0 mm/hr 0.17 in4.3 mm
04:20 PM 41.9°F5.5°C 38.0°F3.3°C 86% 7.7 mph WSW12.4 kmh WSW 11.4 mph18.3 kmh 29.86 in1011.2 mb 0.01 in0.3 mm 0.00 in/hr0.0 mm/hr 0.17 in4.3 mm
04:15 PM 41.7°F5.4°C 37.8°F3.2°C 86% 9.6 mph W15.4 kmh W 15.2 mph24.5 kmh 29.86 in1011.2 mb 0.01 in0.3 mm 0.00 in/hr0.0 mm/hr 0.17 in4.3 mm
04:10 PM 41.5°F5.3°C 37.7°F3.2°C 86% 11.3 mph W18.2 kmh W 15.2 mph24.5 kmh 29.86 in1011.2 mb 0.01 in0.3 mm 0.00 in/hr0.0 mm/hr 0.17 in4.3 mm
04:05 PM 41.5°F5.3°C 37.7°F3.2°C 86% 11.1 mph WNW17.9 kmh WNW 14.5 mph23.3 kmh 29.86 in1011.2 mb 0.01 in0.3 mm 0.00 in/hr0.0 mm/hr 0.17 in4.3 mm
04:00 PM 41.9°F5.5°C 37.7°F3.2°C 85% 13.0 mph WNW20.9 kmh WNW 19.7 mph31.7 kmh 29.85 in1010.8 mb 0.02 in0.5 mm 0.00 in/hr0.0 mm/hr 0.17 in4.3 mm
03:55 PM 42.3°F5.7°C 38.1°F3.4°C 85% 13.3 mph W21.4 kmh W 19.7 mph31.7 kmh 29.85 in1010.8 mb 0.02 in0.5 mm 0.00 in/hr0.0 mm/hr 0.17 in4.3 mm
03:50 PM 43.0°F6.1°C 38.5°F3.6°C 84% 11.4 mph W18.3 kmh W 19.7 mph31.7 kmh 29.86 in1011.2 mb 0.02 in0.5 mm 0.12 in/hr3.0 mm/hr 0.17 in4.3 mm
03:45 PM 43.3°F6.3°C 38.8°F3.8°C 84% 9.1 mph W14.6 kmh W 14.5 mph23.3 kmh 29.84 in1010.5 mb 0.01 in0.3 mm 0.00 in/hr0.0 mm/hr 0.15 in3.8 mm
03:40 PM 43.7°F6.5°C 39.8°F4.3°C 86% 6.0 mph W9.7 kmh W 13.0 mph20.9 kmh 29.84 in1010.5 mb 0.01 in0.3 mm 0.00 in/hr0.0 mm/hr 0.15 in3.8 mm
03:35 PM 43.7°F6.5°C 40.1°F4.5°C 87% 5.0 mph W8.0 kmh W 6.9 mph11.1 kmh 29.84 in1010.5 mb 0.01 in0.3 mm 0.00 in/hr0.0 mm/hr 0.15 in3.8 mm
03:30 PM 43.7°F6.5°C 40.1°F4.5°C 87% 4.5 mph W7.2 kmh W 6.9 mph11.1 kmh 29.84 in1010.5 mb 0.01 in0.3 mm 0.00 in/hr0.0 mm/hr 0.15 in3.8 mm
03:25 PM 43.5°F6.4°C 39.9°F4.4°C 87% 3.9 mph W6.3 kmh W 6.0 mph9.7 kmh 29.84 in1010.5 mb 0.01 in0.3 mm 0.00 in/hr0.0 mm/hr 0.15 in3.8 mm
03:20 PM 43.5°F6.4°C 39.9°F4.4°C 87% 6.0 mph WNW9.7 kmh WNW 10.7 mph17.2 kmh 29.84 in1010.5 mb 0.01 in0.3 mm 0.00 in/hr0.0 mm/hr 0.15 in3.8 mm
03:15 PM 43.5°F6.4°C 39.9°F4.4°C 87% 7.3 mph WNW11.7 kmh WNW 10.7 mph17.2 kmh 29.84 in1010.5 mb 0.02 in0.5 mm 0.00 in/hr0.0 mm/hr 0.15 in3.8 mm
03:10 PM 43.5°F6.4°C 39.6°F4.2°C 86% 5.2 mph W8.4 kmh W 10.7 mph17.2 kmh 29.84 in1010.5 mb 0.04 in1.0 mm 0.00 in/hr0.0 mm/hr 0.15 in3.8 mm
03:05 PM 43.9°F6.6°C 40.0°F4.4°C 86% 3.3 mph WNW5.3 kmh WNW 6.0 mph9.7 kmh 29.84 in1010.5 mb 0.05 in1.3 mm 0.12 in/hr3.0 mm/hr 0.15 in3.8 mm
03:00 PM 44.4°F6.9°C 39.9°F4.4°C 84% 5.1 mph NW8.2 kmh NW 9.2 mph14.8 kmh 29.84 in1010.5 mb 0.04 in1.0 mm 0.00 in/hr0.0 mm/hr 0.14 in3.6 mm
02:55 PM 45.3°F7.4°C 40.5°F4.7°C 83% 5.4 mph NW8.7 kmh NW 9.2 mph14.8 kmh 29.83 in1010.2 mb 0.04 in1.0 mm 0.00 in/hr0.0 mm/hr 0.14 in3.6 mm
02:50 PM 46.4°F8.0°C 41.8°F5.4°C 84% 5.2 mph WNW8.4 kmh WNW 10.7 mph17.2 kmh 29.83 in1010.2 mb 0.04 in1.0 mm 0.00 in/hr0.0 mm/hr 0.14 in3.6 mm
02:45 PM 46.2°F7.9°C 41.7°F5.4°C 84% 5.5 mph NW8.9 kmh NW 10.7 mph17.2 kmh 29.83 in1010.2 mb 0.06 in1.5 mm 0.00 in/hr0.0 mm/hr 0.14 in3.6 mm
02:40 PM 45.5°F7.5°C 41.9°F5.5°C 87% 4.1 mph NW6.6 kmh NW 7.6 mph12.2 kmh 29.82 in1009.8 mb 0.06 in1.5 mm 0.00 in/hr0.0 mm/hr 0.14 in3.6 mm
02:35 PM 44.4°F6.9°C 41.1°F5.1°C 88% 4.6 mph WNW7.4 kmh WNW 8.3 mph13.4 kmh 29.83 in1010.2 mb 0.06 in1.5 mm 0.00 in/hr0.0 mm/hr 0.14 in3.6 mm
02:30 PM 43.0°F6.1°C 40.0°F4.4°C 89% 8.7 mph W14.0 kmh W 13.6 mph21.9 kmh 29.82 in1009.8 mb 0.06 in1.5 mm 0.00 in/hr0.0 mm/hr 0.14 in3.6 mm
02:25 PM 41.0°F5.0°C 37.7°F3.2°C 88% 11.6 mph W18.7 kmh W 16.8 mph27.0 kmh 29.83 in1010.2 mb 0.06 in1.5 mm 0.00 in/hr0.0 mm/hr 0.14 in3.6 mm
02:20 PM 40.8°F4.9°C 37.3°F2.9°C 87% 14.2 mph WNW22.9 kmh WNW 25.1 mph40.4 kmh 29.83 in1010.2 mb 0.06 in1.5 mm 0.12 in/hr3.0 mm/hr 0.14 in3.6 mm
02:15 PM 41.7°F5.4°C 37.8°F3.2°C 86% 13.7 mph WNW22.0 kmh WNW 25.1 mph40.4 kmh 29.83 in1010.2 mb 0.05 in1.3 mm 0.12 in/hr3.0 mm/hr 0.13 in3.3 mm
02:10 PM 42.3°F5.7°C 38.7°F3.7°C 87% 9.1 mph W14.6 kmh W 14.5 mph23.3 kmh 29.82 in1009.8 mb 0.04 in1.0 mm 0.00 in/hr0.0 mm/hr 0.12 in3.0 mm
02:05 PM 43.0°F6.1°C 39.7°F4.3°C 88% 6.6 mph WSW10.6 kmh WSW 10.7 mph17.2 kmh 29.81 in1009.5 mb 0.04 in1.0 mm 0.00 in/hr0.0 mm/hr 0.11 in2.8 mm
02:00 PM 43.2°F6.2°C 39.9°F4.4°C 88% 6.1 mph W9.8 kmh W 10.7 mph17.2 kmh 29.81 in1009.5 mb 0.05 in1.3 mm 0.00 in/hr0.0 mm/hr 0.11 in2.8 mm
01:55 PM 43.0°F6.1°C 39.4°F4.1°C 87% 8.6 mph W13.8 kmh W 15.2 mph24.5 kmh 29.80 in1009.1 mb 0.06 in1.5 mm 0.00 in/hr0.0 mm/hr 0.11 in2.8 mm
01:50 PM 43.7°F6.5°C 39.5°F4.2°C 85% 8.6 mph W13.8 kmh W 15.2 mph24.5 kmh 29.80 in1009.1 mb 0.06 in1.5 mm 0.24 in/hr6.1 mm/hr 0.11 in2.8 mm
01:45 PM 44.6°F7.0°C 40.7°F4.8°C 86% 7.6 mph WNW12.2 kmh WNW 11.4 mph18.3 kmh 29.80 in1009.1 mb 0.04 in1.0 mm 0.00 in/hr0.0 mm/hr 0.08 in2.0 mm
01:40 PM 45.3°F7.4°C 41.1°F5.1°C 85% 7.5 mph NW12.1 kmh NW 11.4 mph18.3 kmh 29.79 in1008.8 mb 0.04 in1.0 mm 0.00 in/hr0.0 mm/hr 0.08 in2.0 mm
01:35 PM 46.0°F7.8°C 42.7°F5.9°C 88% 6.2 mph NW10.0 kmh NW 7.6 mph12.2 kmh 29.80 in1009.1 mb 0.04 in1.0 mm 0.00 in/hr0.0 mm/hr 0.08 in2.0 mm
01:30 PM 45.7°F7.6°C 42.6°F5.9°C 89% 7.5 mph NW12.1 kmh NW 13.0 mph20.9 kmh 29.80 in1009.1 mb 0.04 in1.0 mm 0.00 in/hr0.0 mm/hr 0.08 in2.0 mm
01:25 PM 44.1°F6.7°C 41.3°F5.2°C 90% 7.9 mph WNW12.7 kmh WNW 13.0 mph20.9 kmh 29.80 in1009.1 mb 0.04 in1.0 mm 0.00 in/hr0.0 mm/hr 0.08 in2.0 mm
01:20 PM 42.6°F5.9°C 40.2°F4.6°C 91% 6.3 mph W10.1 kmh W 9.2 mph14.8 kmh 29.80 in1009.1 mb 0.04 in1.0 mm 0.00 in/hr0.0 mm/hr 0.08 in2.0 mm
01:15 PM 41.4°F5.2°C 38.7°F3.7°C 90% 7.3 mph WNW11.7 kmh WNW 11.4 mph18.3 kmh 29.80 in1009.1 mb 0.04 in1.0 mm 0.00 in/hr0.0 mm/hr 0.08 in2.0 mm
01:10 PM 41.0°F5.0°C 38.3°F3.5°C 90% 9.8 mph NW15.8 kmh NW 12.1 mph19.5 kmh 29.81 in1009.5 mb 0.04 in1.0 mm 0.24 in/hr6.1 mm/hr 0.08 in2.0 mm
01:05 PM 41.5°F5.3°C 38.5°F3.6°C 89% 10.0 mph WNW16.1 kmh WNW 14.5 mph23.3 kmh 29.81 in1009.5 mb 0.02 in0.5 mm 0.12 in/hr3.0 mm/hr 0.07 in1.8 mm
01:00 PM 41.9°F5.5°C 39.2°F4.0°C 90% 8.8 mph WNW14.2 kmh WNW 14.5 mph23.3 kmh 29.81 in1009.5 mb 0.01 in0.3 mm 0.01 in/hr0.3 mm/hr 0.06 in1.5 mm
12:55 PM 42.3°F5.7°C 39.3°F4.1°C 89% 9.5 mph WNW15.3 kmh WNW 13.0 mph20.9 kmh 29.81 in1009.5 mb 0.00 in0.0 mm 0.00 in/hr0.0 mm/hr 0.05 in1.3 mm
12:50 PM 42.4°F5.8°C 39.4°F4.1°C 89% 10.5 mph NW16.9 kmh NW 13.6 mph21.9 kmh 29.81 in1009.5 mb 0.00 in0.0 mm 0.00 in/hr0.0 mm/hr 0.05 in1.3 mm
12:45 PM 42.3°F5.7°C 39.3°F4.1°C 89% 11.3 mph NW18.2 kmh NW 14.5 mph23.3 kmh 29.81 in1009.5 mb 0.01 in0.3 mm 0.00 in/hr0.0 mm/hr 0.05 in1.3 mm
12:40 PM 42.3°F5.7°C 39.3°F4.1°C 89% 12.4 mph WNW20.0 kmh WNW 15.2 mph24.5 kmh 29.81 in1009.5 mb 0.01 in0.3 mm 0.00 in/hr0.0 mm/hr 0.05 in1.3 mm
12:35 PM 42.4°F5.8°C 39.4°F4.1°C 89% 13.0 mph WNW20.9 kmh WNW 17.4 mph28.0 kmh 29.81 in1009.5 mb 0.01 in0.3 mm 0.00 in/hr0.0 mm/hr 0.05 in1.3 mm
12:30 PM 42.3°F5.7°C 39.5°F4.2°C 90% 12.1 mph WNW19.5 kmh WNW 17.4 mph28.0 kmh 29.81 in1009.5 mb 0.01 in0.3 mm 0.00 in/hr0.0 mm/hr 0.05 in1.3 mm
12:25 PM 41.9°F5.5°C 39.5°F4.2°C 91% 11.1 mph NW17.9 kmh NW 15.9 mph25.6 kmh 29.81 in1009.5 mb 0.01 in0.3 mm 0.00 in/hr0.0 mm/hr 0.05 in1.3 mm
12:20 PM 41.5°F5.3°C 39.1°F3.9°C 91% 10.5 mph NW16.9 kmh NW 15.9 mph25.6 kmh 29.81 in1009.5 mb 0.01 in0.3 mm 0.00 in/hr0.0 mm/hr 0.05 in1.3 mm
12:15 PM 41.5°F5.3°C 39.4°F4.1°C 92% 10.8 mph NW17.4 kmh NW 14.5 mph23.3 kmh 29.81 in1009.5 mb 0.01 in0.3 mm 0.00 in/hr0.0 mm/hr 0.05 in1.3 mm
12:10 PM 41.4°F5.2°C 39.2°F4.0°C 92% 12.2 mph NW19.6 kmh NW 16.8 mph27.0 kmh 29.81 in1009.5 mb 0.01 in0.3 mm 0.00 in/hr0.0 mm/hr 0.05 in1.3 mm
12:05 PM 41.4°F5.2°C 38.9°F3.8°C 91% 12.8 mph NW20.6 kmh NW 16.8 mph27.0 kmh 29.81 in1009.5 mb 0.01 in0.3 mm 0.00 in/hr0.0 mm/hr 0.05 in1.3 mm
12:00 PM 41.4°F5.2°C 38.9°F3.8°C 91% 12.1 mph NW19.5 kmh NW 16.8 mph27.0 kmh 29.81 in1009.5 mb 0.01 in0.3 mm 0.00 in/hr0.0 mm/hr 0.05 in1.3 mm
11:55 AM 41.5°F5.3°C 39.1°F3.9°C 91% 10.9 mph NW17.5 kmh NW 15.9 mph25.6 kmh 29.82 in1009.8 mb 0.01 in0.3 mm 0.00 in/hr0.0 mm/hr 0.05 in1.3 mm
11:50 AM 41.5°F5.3°C 39.1°F3.9°C 91% 11.1 mph NW17.9 kmh NW 15.9 mph25.6 kmh 29.82 in1009.8 mb 0.01 in0.3 mm 0.12 in/hr3.0 mm/hr 0.05 in1.3 mm
11:45 AM 41.5°F5.3°C 39.1°F3.9°C 91% 10.7 mph NW17.2 kmh NW 13.0 mph20.9 kmh 29.82 in1009.8 mb 0.00 in0.0 mm 0.00 in/hr0.0 mm/hr 0.04 in1.0 mm
11:40 AM 41.7°F5.4°C 39.3°F4.1°C 91% 11.3 mph NW18.2 kmh NW 16.8 mph27.0 kmh 29.82 in1009.8 mb 0.00 in0.0 mm 0.00 in/hr0.0 mm/hr 0.04 in1.0 mm
11:35 AM 41.5°F5.3°C 39.1°F3.9°C 91% 11.2 mph NW18.0 kmh NW 16.8 mph27.0 kmh 29.82 in1009.8 mb 0.00 in0.0 mm 0.00 in/hr0.0 mm/hr 0.04 in1.0 mm
11:30 AM 41.7°F5.4°C 39.3°F4.1°C 91% 9.4 mph NW15.1 kmh NW 15.2 mph24.5 kmh 29.82 in1009.8 mb 0.00 in0.0 mm 0.00 in/hr0.0 mm/hr 0.04 in1.0 mm
11:25 AM 41.5°F5.3°C 38.8°F3.8°C 90% 8.8 mph NW14.2 kmh NW 14.5 mph23.3 kmh 29.82 in1009.8 mb 0.00 in0.0 mm 0.00 in/hr0.0 mm/hr 0.04 in1.0 mm
11:20 AM 41.5°F5.3°C 38.8°F3.8°C 90% 9.6 mph NW15.4 kmh NW 12.1 mph19.5 kmh 29.82 in1009.8 mb 0.00 in0.0 mm 0.00 in/hr0.0 mm/hr 0.04 in1.0 mm
11:15 AM 41.4°F5.2°C 38.4°F3.6°C 89% 9.0 mph NW14.5 kmh NW 12.1 mph19.5 kmh 29.82 in1009.8 mb 0.00 in0.0 mm 0.00 in/hr0.0 mm/hr 0.04 in1.0 mm
11:10 AM 41.5°F5.3°C 38.3°F3.5°C 88% 8.1 mph NW13.0 kmh NW 11.4 mph18.3 kmh 29.82 in1009.8 mb 0.00 in0.0 mm 0.00 in/hr0.0 mm/hr 0.04 in1.0 mm
11:05 AM 41.4°F5.2°C 38.1°F3.4°C 88% 9.2 mph NW14.8 kmh NW 11.4 mph18.3 kmh 29.82 in1009.8 mb 0.00 in0.0 mm 0.00 in/hr0.0 mm/hr 0.04 in1.0 mm
11:00 AM 41.4°F5.2°C 38.1°F3.4°C 88% 10.7 mph NW17.2 kmh NW 13.0 mph20.9 kmh 29.82 in1009.8 mb 0.00 in0.0 mm 0.00 in/hr0.0 mm/hr 0.04 in1.0 mm
10:55 AM 41.4°F5.2°C 37.8°F3.2°C 87% 10.7 mph NW17.2 kmh NW 13.0 mph20.9 kmh 29.82 in1009.8 mb 0.00 in0.0 mm 0.00 in/hr0.0 mm/hr 0.04 in1.0 mm
10:50 AM 41.5°F5.3°C 37.7°F3.2°C 86% 10.1 mph NW16.3 kmh NW 12.1 mph19.5 kmh 29.82 in1009.8 mb 0.00 in0.0 mm 0.00 in/hr0.0 mm/hr 0.04 in1.0 mm
10:45 AM 41.7°F5.4°C 37.8°F3.2°C 86% 11.0 mph NW17.7 kmh NW 13.0 mph20.9 kmh 29.82 in1009.8 mb 0.00 in0.0 mm 0.00 in/hr0.0 mm/hr 0.04 in1.0 mm
10:40 AM 41.7°F5.4°C 37.8°F3.2°C 86% 10.7 mph NW17.2 kmh NW 13.0 mph20.9 kmh 29.82 in1009.8 mb 0.00 in0.0 mm 0.00 in/hr0.0 mm/hr 0.04 in1.0 mm
10:35 AM 41.7°F5.4°C 37.8°F3.2°C 86% 10.6 mph NW17.1 kmh NW 13.6 mph21.9 kmh 29.82 in1009.8 mb 0.00 in0.0 mm 0.00 in/hr0.0 mm/hr 0.04 in1.0 mm
10:30 AM 41.5°F5.3°C 37.7°F3.2°C 86% 9.7 mph NW15.6 kmh NW 13.6 mph21.9 kmh 29.83 in1010.2 mb 0.00 in0.0 mm 0.00 in/hr0.0 mm/hr 0.04 in1.0 mm
10:25 AM 41.5°F5.3°C 38.0°F3.3°C 87% 7.4 mph NW11.9 kmh NW 10.7 mph17.2 kmh 29.83 in1010.2 mb 0.00 in0.0 mm 0.00 in/hr0.0 mm/hr 0.04 in1.0 mm
10:20 AM 41.4°F5.2°C 37.8°F3.2°C 87% 7.7 mph NW12.4 kmh NW 11.4 mph18.3 kmh 29.82 in1009.8 mb 0.00 in0.0 mm 0.00 in/hr0.0 mm/hr 0.04 in1.0 mm
10:15 AM 41.2°F5.1°C 37.6°F3.1°C 87% 8.9 mph NW14.3 kmh NW 11.4 mph18.3 kmh 29.82 in1009.8 mb 0.00 in0.0 mm 0.00 in/hr0.0 mm/hr 0.04 in1.0 mm
10:10 AM 41.0°F5.0°C 37.4°F3.0°C 87% 9.0 mph NW14.5 kmh NW 11.4 mph18.3 kmh 29.82 in1009.8 mb 0.00 in0.0 mm 0.00 in/hr0.0 mm/hr 0.04 in1.0 mm
10:05 AM 41.0°F5.0°C 37.4°F3.0°C 87% 9.0 mph NW14.5 kmh NW 12.1 mph19.5 kmh 29.83 in1010.2 mb 0.00 in0.0 mm 0.00 in/hr0.0 mm/hr 0.04 in1.0 mm
10:00 AM 41.2°F5.1°C 37.6°F3.1°C 87% 8.6 mph NW13.8 kmh NW 12.1 mph19.5 kmh 29.83 in1010.2 mb 0.00 in0.0 mm 0.00 in/hr0.0 mm/hr 0.04 in1.0 mm